sensor_id;sensor_type;location;lat;lon;timestamp;P1;durP1;ratioP1;P2;durP2;ratioP2
5823;SDS011;2938;52.254;12.988;2023-04-24T00:01:21;8.77;;;7.88;;
5823;SDS011;2938;52.254;12.988;2023-04-24T00:03:47;14.77;;;7.07;;
5823;SDS011;2938;52.254;12.988;2023-04-24T00:06:13;7.43;;;6.47;;
5823;SDS011;2938;52.254;12.988;2023-04-24T00:08:38;8.18;;;6.72;;
5823;SDS011;2938;52.254;12.988;2023-04-24T00:11:04;9.95;;;6.75;;
5823;SDS011;2938;52.254;12.988;2023-04-24T00:16:17;18.08;;;6.82;;
5823;SDS011;2938;52.254;12.988;2023-04-24T00:18:43;8.57;;;7.60;;
5823;SDS011;2938;52.254;12.988;2023-04-24T00:21:09;8.32;;;6.80;;
5823;SDS011;2938;52.254;12.988;2023-04-24T00:23:35;6.68;;;6.07;;
5823;SDS011;2938;52.254;12.988;2023-04-24T00:26:04;7.10;;;6.45;;
5823;SDS011;2938;52.254;12.988;2023-04-24T00:28:29;7.10;;;5.95;;
5823;SDS011;2938;52.254;12.988;2023-04-24T00:30:54;9.40;;;8.38;;
5823;SDS011;2938;52.254;12.988;2023-04-24T00:33:20;7.57;;;6.63;;
5823;SDS011;2938;52.254;12.988;2023-04-24T00:35:49;6.68;;;6.03;;
5823;SDS011;2938;52.254;12.988;2023-04-24T00:38:14;6.78;;;6.10;;
5823;SDS011;2938;52.254;12.988;2023-04-24T00:40:39;6.55;;;5.95;;
5823;SDS011;2938;52.254;12.988;2023-04-24T00:43:05;7.05;;;6.28;;
5823;SDS011;2938;52.254;12.988;2023-04-24T00:45:33;11.80;;;7.00;;
5823;SDS011;2938;52.254;12.988;2023-04-24T00:47:58;8.23;;;7.30;;
5823;SDS011;2938;52.254;12.988;2023-04-24T00:50:28;9.15;;;8.07;;
5823;SDS011;2938;52.254;12.988;2023-04-24T00:52:53;8.20;;;6.57;;
5823;SDS011;2938;52.254;12.988;2023-04-24T00:55:22;10.02;;;6.70;;
5823;SDS011;2938;52.254;12.988;2023-04-24T00:57:47;10.23;;;7.50;;
5823;SDS011;2938;52.254;12.988;2023-04-24T01:00:14;7.63;;;6.82;;
5823;SDS011;2938;52.254;12.988;2023-04-24T01:02:40;9.07;;;6.90;;
5823;SDS011;2938;52.254;12.988;2023-04-24T01:05:10;10.20;;;7.13;;
5823;SDS011;2938;52.254;12.988;2023-04-24T01:07:37;9.00;;;6.65;;
5823;SDS011;2938;52.254;12.988;2023-04-24T01:10:06;8.20;;;7.40;;
5823;SDS011;2938;52.254;12.988;2023-04-24T01:12:33;9.90;;;8.20;;
5823;SDS011;2938;52.254;12.988;2023-04-24T01:15:01;9.68;;;7.15;;
5823;SDS011;2938;52.254;12.988;2023-04-24T01:17:27;9.00;;;7.50;;
5823;SDS011;2938;52.254;12.988;2023-04-24T01:19:52;10.50;;;7.05;;
5823;SDS011;2938;52.254;12.988;2023-04-24T01:22:22;7.70;;;6.90;;
5823;SDS011;2938;52.254;12.988;2023-04-24T01:24:47;8.25;;;7.45;;
5823;SDS011;2938;52.254;12.988;2023-04-24T01:27:15;7.75;;;6.95;;
5823;SDS011;2938;52.254;12.988;2023-04-24T01:29:41;9.15;;;7.90;;
5823;SDS011;2938;52.254;12.988;2023-04-24T01:32:06;9.23;;;8.05;;
5823;SDS011;2938;52.254;12.988;2023-04-24T01:34:34;8.15;;;7.10;;
5823;SDS011;2938;52.254;12.988;2023-04-24T01:37:00;8.88;;;7.90;;
5823;SDS011;2938;52.254;12.988;2023-04-24T01:39:26;11.88;;;8.35;;
5823;SDS011;2938;52.254;12.988;2023-04-24T01:41:53;8.48;;;7.68;;
5823;SDS011;2938;52.254;12.988;2023-04-24T01:44:19;9.95;;;8.13;;
5823;SDS011;2938;52.254;12.988;2023-04-24T01:46:46;14.95;;;7.45;;
5823;SDS011;2938;52.254;12.988;2023-04-24T01:49:11;11.10;;;6.25;;
5823;SDS011;2938;52.254;12.988;2023-04-24T01:51:37;6.72;;;5.90;;
5823;SDS011;2938;52.254;12.988;2023-04-24T01:54:03;13.02;;;7.03;;
5823;SDS011;2938;52.254;12.988;2023-04-24T01:56:33;11.52;;;6.68;;
5823;SDS011;2938;52.254;12.988;2023-04-24T01:59:00;9.90;;;7.13;;
5823;SDS011;2938;52.254;12.988;2023-04-24T02:01:29;9.90;;;8.13;;
5823;SDS011;2938;52.254;12.988;2023-04-24T02:03:58;12.73;;;8.52;;
5823;SDS011;2938;52.254;12.988;2023-04-24T02:06:26;13.15;;;8.15;;
5823;SDS011;2938;52.254;12.988;2023-04-24T02:08:52;9.65;;;7.78;;
5823;SDS011;2938;52.254;12.988;2023-04-24T02:11:18;14.77;;;9.50;;
5823;SDS011;2938;52.254;12.988;2023-04-24T02:13:44;30.50;;;10.15;;
5823;SDS011;2938;52.254;12.988;2023-04-24T02:16:09;20.98;;;8.75;;
5823;SDS011;2938;52.254;12.988;2023-04-24T02:18:35;21.67;;;8.77;;
5823;SDS011;2938;52.254;12.988;2023-04-24T02:21:01;13.55;;;7.80;;
5823;SDS011;2938;52.254;12.988;2023-04-24T02:23:26;9.55;;;8.50;;
5823;SDS011;2938;52.254;12.988;2023-04-24T02:25:52;18.80;;;9.07;;
5823;SDS011;2938;52.254;12.988;2023-04-24T02:28:18;16.73;;;10.77;;
5823;SDS011;2938;52.254;12.988;2023-04-24T02:30:44;15.63;;;10.02;;
5823;SDS011;2938;52.254;12.988;2023-04-24T02:33:09;12.27;;;8.93;;
5823;SDS011;2938;52.254;12.988;2023-04-24T02:35:35;11.57;;;10.25;;
5823;SDS011;2938;52.254;12.988;2023-04-24T02:38:00;10.63;;;9.57;;
5823;SDS011;2938;52.254;12.988;2023-04-24T02:40:25;15.00;;;11.00;;
5823;SDS011;2938;52.254;12.988;2023-04-24T02:42:51;12.52;;;10.00;;
5823;SDS011;2938;52.254;12.988;2023-04-24T02:45:16;14.68;;;10.30;;
5823;SDS011;2938;52.254;12.988;2023-04-24T02:47:41;13.88;;;10.05;;
5823;SDS011;2938;52.254;12.988;2023-04-24T02:50:07;12.75;;;9.02;;
5823;SDS011;2938;52.254;12.988;2023-04-24T02:52:33;13.98;;;9.00;;
5823;SDS011;2938;52.254;12.988;2023-04-24T02:54:58;15.40;;;9.75;;
5823;SDS011;2938;52.254;12.988;2023-04-24T02:57:27;19.17;;;9.50;;
5823;SDS011;2938;52.254;12.988;2023-04-24T02:59:52;11.27;;;10.13;;
5823;SDS011;2938;52.254;12.988;2023-04-24T03:02:21;17.83;;;10.10;;
5823;SDS011;2938;52.254;12.988;2023-04-24T03:04:46;13.43;;;9.82;;
5823;SDS011;2938;52.254;12.988;2023-04-24T03:07:13;13.95;;;10.10;;
5823;SDS011;2938;52.254;12.988;2023-04-24T03:09:39;14.75;;;10.73;;
5823;SDS011;2938;52.254;12.988;2023-04-24T03:12:05;17.73;;;10.77;;
5823;SDS011;2938;52.254;12.988;2023-04-24T03:14:30;16.65;;;9.45;;
5823;SDS011;2938;52.254;12.988;2023-04-24T03:16:56;15.60;;;10.48;;
5823;SDS011;2938;52.254;12.988;2023-04-24T03:19:22;19.95;;;11.80;;
5823;SDS011;2938;52.254;12.988;2023-04-24T03:21:47;12.43;;;10.98;;
5823;SDS011;2938;52.254;12.988;2023-04-24T03:24:13;16.52;;;10.15;;
5823;SDS011;2938;52.254;12.988;2023-04-24T03:26:38;16.00;;;10.95;;
5823;SDS011;2938;52.254;12.988;2023-04-24T03:29:03;17.52;;;9.80;;
5823;SDS011;2938;52.254;12.988;2023-04-24T03:31:29;10.75;;;9.65;;
5823;SDS011;2938;52.254;12.988;2023-04-24T03:33:54;20.58;;;11.40;;
5823;SDS011;2938;52.254;12.988;2023-04-24T03:36:20;19.17;;;9.98;;
5823;SDS011;2938;52.254;12.988;2023-04-24T03:38:55;22.45;;;10.00;;
5823;SDS011;2938;52.254;12.988;2023-04-24T03:41:23;22.30;;;10.45;;
5823;SDS011;2938;52.254;12.988;2023-04-24T03:43:48;20.58;;;8.98;;
5823;SDS011;2938;52.254;12.988;2023-04-24T03:46:14;22.73;;;10.90;;
5823;SDS011;2938;52.254;12.988;2023-04-24T03:48:42;13.07;;;10.13;;
5823;SDS011;2938;52.254;12.988;2023-04-24T03:51:11;15.88;;;8.02;;
5823;SDS011;2938;52.254;12.988;2023-04-24T03:53:37;10.23;;;8.52;;
5823;SDS011;2938;52.254;12.988;2023-04-24T03:56:02;15.85;;;8.57;;
5823;SDS011;2938;52.254;12.988;2023-04-24T03:58:30;10.57;;;8.60;;
5823;SDS011;2938;52.254;12.988;2023-04-24T04:00:58;17.98;;;8.48;;
5823;SDS011;2938;52.254;12.988;2023-04-24T04:03:25;15.52;;;8.18;;
5823;SDS011;2938;52.254;12.988;2023-04-24T04:05:55;12.60;;;8.27;;
5823;SDS011;2938;52.254;12.988;2023-04-24T04:08:21;14.05;;;8.30;;
5823;SDS011;2938;52.254;12.988;2023-04-24T04:10:46;11.85;;;8.85;;
5823;SDS011;2938;52.254;12.988;2023-04-24T04:13:12;14.52;;;8.40;;
5823;SDS011;2938;52.254;12.988;2023-04-24T04:15:40;13.15;;;9.18;;
5823;SDS011;2938;52.254;12.988;2023-04-24T04:18:06;8.65;;;7.75;;
5823;SDS011;2938;52.254;12.988;2023-04-24T04:20:42;10.75;;;6.85;;
5823;SDS011;2938;52.254;12.988;2023-04-24T04:25:56;40.15;;;10.20;;
5823;SDS011;2938;52.254;12.988;2023-04-24T04:28:22;14.80;;;7.40;;
5823;SDS011;2938;52.254;12.988;2023-04-24T04:30:49;19.83;;;7.57;;
5823;SDS011;2938;52.254;12.988;2023-04-24T04:33:19;10.38;;;6.50;;
5823;SDS011;2938;52.254;12.988;2023-04-24T04:35:48;10.10;;;7.38;;
5823;SDS011;2938;52.254;12.988;2023-04-24T04:38:21;12.23;;;7.05;;
5823;SDS011;2938;52.254;12.988;2023-04-24T04:40:47;6.18;;;5.28;;
5823;SDS011;2938;52.254;12.988;2023-04-24T04:43:15;6.30;;;5.70;;
5823;SDS011;2938;52.254;12.988;2023-04-24T04:45:41;7.28;;;5.80;;
5823;SDS011;2938;52.254;12.988;2023-04-24T04:48:07;7.75;;;5.47;;
5823;SDS011;2938;52.254;12.988;2023-04-24T04:50:41;4.97;;;4.47;;
5823;SDS011;2938;52.254;12.988;2023-04-24T04:53:14;8.65;;;4.95;;
5823;SDS011;2938;52.254;12.988;2023-04-24T04:55:43;19.35;;;5.32;;
5823;SDS011;2938;52.254;12.988;2023-04-24T04:58:08;22.00;;;5.22;;
5823;SDS011;2938;52.254;12.988;2023-04-24T05:00:43;13.67;;;4.27;;
5823;SDS011;2938;52.254;12.988;2023-04-24T05:03:16;24.25;;;4.60;;
5823;SDS011;2938;52.254;12.988;2023-04-24T05:05:42;12.27;;;4.35;;
5823;SDS011;2938;52.254;12.988;2023-04-24T05:08:10;18.30;;;4.00;;
5823;SDS011;2938;52.254;12.988;2023-04-24T05:10:36;14.15;;;4.57;;
5823;SDS011;2938;52.254;12.988;2023-04-24T05:13:04;8.20;;;3.97;;
5823;SDS011;2938;52.254;12.988;2023-04-24T05:15:29;4.25;;;3.45;;
5823;SDS011;2938;52.254;12.988;2023-04-24T05:17:55;6.65;;;3.17;;
5823;SDS011;2938;52.254;12.988;2023-04-24T05:20:20;8.10;;;3.50;;
5823;SDS011;2938;52.254;12.988;2023-04-24T05:22:46;8.13;;;3.20;;
5823;SDS011;2938;52.254;12.988;2023-04-24T05:25:11;2.80;;;2.60;;
5823;SDS011;2938;52.254;12.988;2023-04-24T05:27:37;5.80;;;3.20;;
5823;SDS011;2938;52.254;12.988;2023-04-24T05:30:03;11.40;;;2.58;;
5823;SDS011;2938;52.254;12.988;2023-04-24T05:32:29;3.83;;;2.38;;
5823;SDS011;2938;52.254;12.988;2023-04-24T05:34:54;5.35;;;1.70;;
5823;SDS011;2938;52.254;12.988;2023-04-24T05:37:20;5.30;;;2.63;;
5823;SDS011;2938;52.254;12.988;2023-04-24T05:39:45;7.47;;;2.60;;
5823;SDS011;2938;52.254;12.988;2023-04-24T05:42:11;2.65;;;1.45;;
5823;SDS011;2938;52.254;12.988;2023-04-24T05:44:36;5.53;;;1.95;;
5823;SDS011;2938;52.254;12.988;2023-04-24T05:47:02;6.28;;;2.35;;
5823;SDS011;2938;52.254;12.988;2023-04-24T05:49:27;14.13;;;2.75;;
5823;SDS011;2938;52.254;12.988;2023-04-24T05:51:53;2.60;;;1.92;;
5823;SDS011;2938;52.254;12.988;2023-04-24T05:54:18;3.20;;;1.40;;
5823;SDS011;2938;52.254;12.988;2023-04-24T05:56:43;3.90;;;1.58;;
5823;SDS011;2938;52.254;12.988;2023-04-24T05:59:09;0.93;;;0.90;;
5823;SDS011;2938;52.254;12.988;2023-04-24T06:01:35;1.75;;;1.65;;
5823;SDS011;2938;52.254;12.988;2023-04-24T06:04:02;10.35;;;2.08;;
5823;SDS011;2938;52.254;12.988;2023-04-24T06:06:28;20.83;;;2.05;;
5823;SDS011;2938;52.254;12.988;2023-04-24T06:09:02;1.80;;;1.50;;
5823;SDS011;2938;52.254;12.988;2023-04-24T06:11:28;2.13;;;1.15;;
5823;SDS011;2938;52.254;12.988;2023-04-24T06:13:56;5.53;;;1.70;;
5823;SDS011;2938;52.254;12.988;2023-04-24T06:16:30;1.33;;;0.98;;
5823;SDS011;2938;52.254;12.988;2023-04-24T06:18:56;15.88;;;2.63;;
5823;SDS011;2938;52.254;12.988;2023-04-24T06:21:21;7.45;;;1.88;;
5823;SDS011;2938;52.254;12.988;2023-04-24T06:23:46;1.95;;;1.40;;
5823;SDS011;2938;52.254;12.988;2023-04-24T06:26:12;1.48;;;1.38;;
5823;SDS011;2938;52.254;12.988;2023-04-24T06:28:37;3.05;;;1.13;;
5823;SDS011;2938;52.254;12.988;2023-04-24T06:31:02;0.80;;;0.80;;
5823;SDS011;2938;52.254;12.988;2023-04-24T06:33:28;5.50;;;1.33;;
5823;SDS011;2938;52.254;12.988;2023-04-24T06:35:53;1.85;;;1.38;;
5823;SDS011;2938;52.254;12.988;2023-04-24T06:38:18;5.00;;;1.20;;
5823;SDS011;2938;52.254;12.988;2023-04-24T06:40:44;2.17;;;1.10;;
5823;SDS011;2938;52.254;12.988;2023-04-24T06:43:10;2.03;;;1.50;;
5823;SDS011;2938;52.254;12.988;2023-04-24T06:45:35;1.20;;;1.08;;
5823;SDS011;2938;52.254;12.988;2023-04-24T06:48:04;1.48;;;1.08;;
5823;SDS011;2938;52.254;12.988;2023-04-24T06:50:29;3.95;;;1.33;;
5823;SDS011;2938;52.254;12.988;2023-04-24T06:52:54;4.25;;;1.13;;
5823;SDS011;2938;52.254;12.988;2023-04-24T06:55:20;2.25;;;1.30;;
5823;SDS011;2938;52.254;12.988;2023-04-24T06:57:48;3.28;;;1.30;;
5823;SDS011;2938;52.254;12.988;2023-04-24T07:00:13;4.50;;;1.42;;
5823;SDS011;2938;52.254;12.988;2023-04-24T07:02:42;1.23;;;0.75;;
5823;SDS011;2938;52.254;12.988;2023-04-24T07:05:07;1.70;;;0.82;;
5823;SDS011;2938;52.254;12.988;2023-04-24T07:07:33;1.80;;;0.90;;
5823;SDS011;2938;52.254;12.988;2023-04-24T07:10:05;1.60;;;0.95;;
5823;SDS011;2938;52.254;12.988;2023-04-24T07:12:30;2.05;;;1.25;;
5823;SDS011;2938;52.254;12.988;2023-04-24T07:14:59;1.63;;;1.05;;
5823;SDS011;2938;52.254;12.988;2023-04-24T07:17:25;2.17;;;1.15;;
5823;SDS011;2938;52.254;12.988;2023-04-24T07:19:50;4.93;;;1.35;;
5823;SDS011;2938;52.254;12.988;2023-04-24T07:22:17;2.58;;;1.20;;
5823;SDS011;2938;52.254;12.988;2023-04-24T07:24:43;2.42;;;1.10;;
5823;SDS011;2938;52.254;12.988;2023-04-24T07:27:11;1.75;;;1.25;;
5823;SDS011;2938;52.254;12.988;2023-04-24T07:29:37;1.13;;;0.75;;
5823;SDS011;2938;52.254;12.988;2023-04-24T07:32:03;2.03;;;1.33;;
5823;SDS011;2938;52.254;12.988;2023-04-24T07:34:28;1.25;;;1.05;;
5823;SDS011;2938;52.254;12.988;2023-04-24T07:36:54;4.68;;;1.10;;
5823;SDS011;2938;52.254;12.988;2023-04-24T07:39:19;6.60;;;1.10;;
5823;SDS011;2938;52.254;12.988;2023-04-24T07:41:44;1.05;;;1.05;;
5823;SDS011;2938;52.254;12.988;2023-04-24T07:44:27;1.50;;;0.83;;
5823;SDS011;2938;52.254;12.988;2023-04-24T07:46:53;0.70;;;0.70;;
5823;SDS011;2938;52.254;12.988;2023-04-24T07:49:18;5.85;;;1.60;;
5823;SDS011;2938;52.254;12.988;2023-04-24T07:51:53;1.02;;;0.80;;
5823;SDS011;2938;52.254;12.988;2023-04-24T07:54:36;2.35;;;0.98;;
5823;SDS011;2938;52.254;12.988;2023-04-24T07:57:02;2.22;;;0.82;;
5823;SDS011;2938;52.254;12.988;2023-04-24T07:59:27;8.32;;;1.80;;
5823;SDS011;2938;52.254;12.988;2023-04-24T08:01:53;3.72;;;1.02;;
5823;SDS011;2938;52.254;12.988;2023-04-24T08:10:15;1.80;;;0.80;;
5823;SDS011;2938;52.254;12.988;2023-04-24T08:12:55;4.55;;;0.70;;
5823;SDS011;2938;52.254;12.988;2023-04-24T08:15:21;2.05;;;1.08;;
5823;SDS011;2938;52.254;12.988;2023-04-24T08:17:47;3.13;;;1.25;;
5823;SDS011;2938;52.254;12.988;2023-04-24T08:20:12;1.75;;;0.98;;
5823;SDS011;2938;52.254;12.988;2023-04-24T08:23:24;7.47;;;1.85;;
5823;SDS011;2938;52.254;12.988;2023-04-24T08:26:07;8.75;;;1.55;;
5823;SDS011;2938;52.254;12.988;2023-04-24T08:28:33;6.53;;;1.25;;
5823;SDS011;2938;52.254;12.988;2023-04-24T08:31:01;1.65;;;0.95;;
5823;SDS011;2938;52.254;12.988;2023-04-24T08:33:26;1.92;;;1.33;;
5823;SDS011;2938;52.254;12.988;2023-04-24T08:35:52;5.38;;;1.90;;
5823;SDS011;2938;52.254;12.988;2023-04-24T08:38:18;4.38;;;2.33;;
5823;SDS011;2938;52.254;12.988;2023-04-24T08:40:43;4.10;;;1.55;;
5823;SDS011;2938;52.254;12.988;2023-04-24T08:43:10;5.38;;;1.42;;
5823;SDS011;2938;52.254;12.988;2023-04-24T08:45:47;1.77;;;1.23;;
5823;SDS011;2938;52.254;12.988;2023-04-24T08:48:15;1.13;;;1.02;;
5823;SDS011;2938;52.254;12.988;2023-04-24T08:50:58;2.65;;;1.15;;
5823;SDS011;2938;52.254;12.988;2023-04-24T08:56:35;3.88;;;1.40;;
5823;SDS011;2938;52.254;12.988;2023-04-24T08:59:10;10.25;;;1.10;;
5823;SDS011;2938;52.254;12.988;2023-04-24T09:02:11;7.97;;;1.50;;
5823;SDS011;2938;52.254;12.988;2023-04-24T09:04:48;1.77;;;1.05;;
5823;SDS011;2938;52.254;12.988;2023-04-24T09:07:21;11.10;;;1.90;;
5823;SDS011;2938;52.254;12.988;2023-04-24T09:10:09;2.42;;;1.00;;
5823;SDS011;2938;52.254;12.988;2023-04-24T09:12:51;4.13;;;1.05;;
5823;SDS011;2938;52.254;12.988;2023-04-24T09:22:21;1.17;;;0.90;;
5823;SDS011;2938;52.254;12.988;2023-04-24T09:25:09;7.85;;;1.95;;
5823;SDS011;2938;52.254;12.988;2023-04-24T09:28:07;1.48;;;1.13;;
5823;SDS011;2938;52.254;12.988;2023-04-24T09:40:21;3.00;;;1.13;;
5823;SDS011;2938;52.254;12.988;2023-04-24T09:45:49;4.35;;;1.30;;
5823;SDS011;2938;52.254;12.988;2023-04-24T09:49:05;4.90;;;1.35;;
5823;SDS011;2938;52.254;12.988;2023-04-24T09:51:40;3.90;;;2.03;;
5823;SDS011;2938;52.254;12.988;2023-04-24T09:55:02;1.45;;;1.25;;
5823;SDS011;2938;52.254;12.988;2023-04-24T09:58:17;2.63;;;1.35;;
5823;SDS011;2938;52.254;12.988;2023-04-24T10:00:49;1.92;;;1.20;;
5823;SDS011;2938;52.254;12.988;2023-04-24T10:03:27;10.85;;;1.98;;
5823;SDS011;2938;52.254;12.988;2023-04-24T10:06:42;13.27;;;1.20;;
5823;SDS011;2938;52.254;12.988;2023-04-24T10:09:23;2.03;;;1.10;;
5823;SDS011;2938;52.254;12.988;2023-04-24T10:11:55;9.60;;;1.63;;
5823;SDS011;2938;52.254;12.988;2023-04-24T10:14:21;3.13;;;0.93;;
5823;SDS011;2938;52.254;12.988;2023-04-24T10:16:57;1.88;;;1.05;;
5823;SDS011;2938;52.254;12.988;2023-04-24T10:19:48;2.15;;;1.13;;
5823;SDS011;2938;52.254;12.988;2023-04-24T10:22:23;1.42;;;1.15;;
5823;SDS011;2938;52.254;12.988;2023-04-24T10:28:19;2.63;;;1.00;;
5823;SDS011;2938;52.254;12.988;2023-04-24T10:40:42;2.28;;;1.35;;
5823;SDS011;2938;52.254;12.988;2023-04-24T10:53:20;2.15;;;1.20;;
5823;SDS011;2938;52.254;12.988;2023-04-24T10:56:02;11.88;;;1.10;;
5823;SDS011;2938;52.254;12.988;2023-04-24T10:58:42;2.35;;;0.98;;
5823;SDS011;2938;52.254;12.988;2023-04-24T11:01:33;3.88;;;1.38;;
5823;SDS011;2938;52.254;12.988;2023-04-24T11:03:59;9.88;;;2.13;;
5823;SDS011;2938;52.254;12.988;2023-04-24T11:06:37;7.38;;;1.20;;
5823;SDS011;2938;52.254;12.988;2023-04-24T11:09:07;1.33;;;0.90;;
5823;SDS011;2938;52.254;12.988;2023-04-24T11:11:36;5.78;;;1.95;;
5823;SDS011;2938;52.254;12.988;2023-04-24T11:14:05;1.95;;;0.90;;
5823;SDS011;2938;52.254;12.988;2023-04-24T11:21:54;4.80;;;0.50;;
5823;SDS011;2938;52.254;12.988;2023-04-24T11:32:17;2.72;;;1.20;;
5823;SDS011;2938;52.254;12.988;2023-04-24T11:34:52;1.02;;;0.93;;
5823;SDS011;2938;52.254;12.988;2023-04-24T11:37:21;4.18;;;1.30;;
5823;SDS011;2938;52.254;12.988;2023-04-24T11:39:50;1.83;;;0.60;;
5823;SDS011;2938;52.254;12.988;2023-04-24T11:42:16;2.05;;;0.98;;
5823;SDS011;2938;52.254;12.988;2023-04-24T11:44:42;2.63;;;1.05;;
5823;SDS011;2938;52.254;12.988;2023-04-24T11:47:08;1.98;;;1.08;;
5823;SDS011;2938;52.254;12.988;2023-04-24T11:49:33;4.65;;;1.08;;
5823;SDS011;2938;52.254;12.988;2023-04-24T11:52:02;6.35;;;1.80;;
5823;SDS011;2938;52.254;12.988;2023-04-24T11:54:27;35.45;;;2.58;;
5823;SDS011;2938;52.254;12.988;2023-04-24T11:56:53;4.97;;;1.45;;
5823;SDS011;2938;52.254;12.988;2023-04-24T11:59:18;6.65;;;1.17;;
5823;SDS011;2938;52.254;12.988;2023-04-24T12:01:44;1.45;;;0.88;;
5823;SDS011;2938;52.254;12.988;2023-04-24T12:04:13;4.03;;;1.25;;
5823;SDS011;2938;52.254;12.988;2023-04-24T12:06:39;7.80;;;1.60;;
5823;SDS011;2938;52.254;12.988;2023-04-24T12:09:04;2.22;;;1.20;;
5823;SDS011;2938;52.254;12.988;2023-04-24T12:11:29;2.50;;;1.38;;
5823;SDS011;2938;52.254;12.988;2023-04-24T12:13:55;4.55;;;1.70;;
5823;SDS011;2938;52.254;12.988;2023-04-24T12:16:20;3.30;;;0.80;;
5823;SDS011;2938;52.254;12.988;2023-04-24T12:18:45;19.30;;;1.63;;
5823;SDS011;2938;52.254;12.988;2023-04-24T12:21:14;2.15;;;0.85;;
5823;SDS011;2938;52.254;12.988;2023-04-24T12:23:54;5.63;;;1.00;;
5823;SDS011;2938;52.254;12.988;2023-04-24T12:26:19;0.77;;;0.77;;
5823;SDS011;2938;52.254;12.988;2023-04-24T12:28:47;0.82;;;0.82;;
5823;SDS011;2938;52.254;12.988;2023-04-24T12:31:14;1.85;;;1.05;;
5823;SDS011;2938;52.254;12.988;2023-04-24T12:33:39;0.73;;;0.70;;
5823;SDS011;2938;52.254;12.988;2023-04-24T12:36:04;1.30;;;0.90;;
5823;SDS011;2938;52.254;12.988;2023-04-24T12:38:31;2.00;;;1.25;;
5823;SDS011;2938;52.254;12.988;2023-04-24T12:41:06;1.05;;;0.85;;
5823;SDS011;2938;52.254;12.988;2023-04-24T12:43:32;4.20;;;1.00;;
5823;SDS011;2938;52.254;12.988;2023-04-24T12:45:58;0.88;;;0.80;;
5823;SDS011;2938;52.254;12.988;2023-04-24T12:48:24;1.88;;;0.90;;
5823;SDS011;2938;52.254;12.988;2023-04-24T12:50:52;1.38;;;1.08;;
5823;SDS011;2938;52.254;12.988;2023-04-24T12:53:17;1.15;;;0.93;;
5823;SDS011;2938;52.254;12.988;2023-04-24T12:55:43;1.02;;;0.80;;
5823;SDS011;2938;52.254;12.988;2023-04-24T12:58:09;1.15;;;1.15;;
5823;SDS011;2938;52.254;12.988;2023-04-24T13:00:34;1.52;;;1.13;;
5823;SDS011;2938;52.254;12.988;2023-04-24T13:03:00;2.83;;;0.80;;
5823;SDS011;2938;52.254;12.988;2023-04-24T13:05:26;0.93;;;0.93;;
5823;SDS011;2938;52.254;12.988;2023-04-24T13:07:51;5.15;;;1.38;;
5823;SDS011;2938;52.254;12.988;2023-04-24T13:10:16;7.55;;;1.73;;
5823;SDS011;2938;52.254;12.988;2023-04-24T13:12:42;2.38;;;1.20;;
5823;SDS011;2938;52.254;12.988;2023-04-24T13:15:10;2.45;;;1.05;;
5823;SDS011;2938;52.254;12.988;2023-04-24T13:17:35;3.00;;;1.20;;
5823;SDS011;2938;52.254;12.988;2023-04-24T13:20:00;0.90;;;0.90;;
5823;SDS011;2938;52.254;12.988;2023-04-24T13:22:26;0.80;;;0.73;;
5823;SDS011;2938;52.254;12.988;2023-04-24T13:24:52;1.80;;;1.08;;
5823;SDS011;2938;52.254;12.988;2023-04-24T13:27:17;2.25;;;1.05;;
5823;SDS011;2938;52.254;12.988;2023-04-24T13:29:43;1.13;;;1.00;;
5823;SDS011;2938;52.254;12.988;2023-04-24T13:32:08;3.78;;;1.10;;
5823;SDS011;2938;52.254;12.988;2023-04-24T13:34:34;1.65;;;0.90;;
5823;SDS011;2938;52.254;12.988;2023-04-24T13:37:05;3.17;;;1.35;;
5823;SDS011;2938;52.254;12.988;2023-04-24T13:39:30;3.55;;;1.60;;
5823;SDS011;2938;52.254;12.988;2023-04-24T13:41:56;1.25;;;1.15;;
5823;SDS011;2938;52.254;12.988;2023-04-24T13:44:22;3.25;;;1.38;;
5823;SDS011;2938;52.254;12.988;2023-04-24T13:46:49;3.55;;;1.45;;
5823;SDS011;2938;52.254;12.988;2023-04-24T13:49:16;6.10;;;1.50;;
5823;SDS011;2938;52.254;12.988;2023-04-24T13:51:42;1.42;;;1.23;;
5823;SDS011;2938;52.254;12.988;2023-04-24T13:54:08;2.13;;;1.48;;
5823;SDS011;2938;52.254;12.988;2023-04-24T13:56:33;1.58;;;1.20;;
5823;SDS011;2938;52.254;12.988;2023-04-24T13:58:59;14.40;;;1.60;;
5823;SDS011;2938;52.254;12.988;2023-04-24T14:01:27;2.97;;;1.25;;
5823;SDS011;2938;52.254;12.988;2023-04-24T14:03:52;5.65;;;1.40;;
5823;SDS011;2938;52.254;12.988;2023-04-24T14:06:18;6.38;;;1.38;;
5823;SDS011;2938;52.254;12.988;2023-04-24T14:08:44;1.00;;;0.90;;
5823;SDS011;2938;52.254;12.988;2023-04-24T14:11:09;1.33;;;1.10;;
5823;SDS011;2938;52.254;12.988;2023-04-24T14:13:35;2.88;;;2.10;;
5823;SDS011;2938;52.254;12.988;2023-04-24T14:16:02;4.07;;;1.58;;
5823;SDS011;2938;52.254;12.988;2023-04-24T14:18:27;3.80;;;1.20;;
5823;SDS011;2938;52.254;12.988;2023-04-24T14:20:53;1.85;;;1.48;;
5823;SDS011;2938;52.254;12.988;2023-04-24T14:23:18;4.00;;;1.52;;
5823;SDS011;2938;52.254;12.988;2023-04-24T14:25:44;1.17;;;1.08;;
5823;SDS011;2938;52.254;12.988;2023-04-24T14:28:10;1.42;;;1.33;;
5823;SDS011;2938;52.254;12.988;2023-04-24T14:30:36;3.63;;;2.03;;
5823;SDS011;2938;52.254;12.988;2023-04-24T14:33:02;3.00;;;1.42;;
5823;SDS011;2938;52.254;12.988;2023-04-24T14:35:28;3.17;;;1.25;;
5823;SDS011;2938;52.254;12.988;2023-04-24T14:37:56;1.75;;;1.65;;
5823;SDS011;2938;52.254;12.988;2023-04-24T14:40:21;2.00;;;1.60;;
5823;SDS011;2938;52.254;12.988;2023-04-24T14:42:46;2.42;;;2.03;;
5823;SDS011;2938;52.254;12.988;2023-04-24T14:45:12;7.35;;;1.67;;
5823;SDS011;2938;52.254;12.988;2023-04-24T14:47:37;3.40;;;1.80;;
5823;SDS011;2938;52.254;12.988;2023-04-24T14:50:02;9.93;;;2.33;;
5823;SDS011;2938;52.254;12.988;2023-04-24T14:52:28;2.83;;;1.70;;
5823;SDS011;2938;52.254;12.988;2023-04-24T14:54:53;7.55;;;1.67;;
5823;SDS011;2938;52.254;12.988;2023-04-24T14:57:19;2.70;;;1.70;;
5823;SDS011;2938;52.254;12.988;2023-04-24T14:59:44;8.65;;;1.48;;
5823;SDS011;2938;52.254;12.988;2023-04-24T15:02:10;7.72;;;2.08;;
5823;SDS011;2938;52.254;12.988;2023-04-24T15:04:35;2.35;;;2.15;;
5823;SDS011;2938;52.254;12.988;2023-04-24T15:07:01;6.30;;;1.65;;
5823;SDS011;2938;52.254;12.988;2023-04-24T15:09:26;4.47;;;1.30;;
5823;SDS011;2938;52.254;12.988;2023-04-24T15:11:52;1.58;;;1.17;;
5823;SDS011;2938;52.254;12.988;2023-04-24T15:14:17;3.03;;;1.63;;
5823;SDS011;2938;52.254;12.988;2023-04-24T15:16:43;1.52;;;1.42;;
5823;SDS011;2938;52.254;12.988;2023-04-24T15:19:08;7.93;;;3.17;;
5823;SDS011;2938;52.254;12.988;2023-04-24T15:21:35;2.00;;;1.52;;
5823;SDS011;2938;52.254;12.988;2023-04-24T15:24:00;6.00;;;1.60;;
5823;SDS011;2938;52.254;12.988;2023-04-24T15:26:26;7.93;;;1.98;;
5823;SDS011;2938;52.254;12.988;2023-04-24T15:28:51;3.83;;;1.20;;
5823;SDS011;2938;52.254;12.988;2023-04-24T15:31:17;2.53;;;1.20;;
5823;SDS011;2938;52.254;12.988;2023-04-24T15:33:43;4.00;;;1.15;;
5823;SDS011;2938;52.254;12.988;2023-04-24T15:36:08;3.00;;;1.63;;
5823;SDS011;2938;52.254;12.988;2023-04-24T15:38:34;2.15;;;1.48;;
5823;SDS011;2938;52.254;12.988;2023-04-24T15:40:59;3.97;;;1.60;;
5823;SDS011;2938;52.254;12.988;2023-04-24T15:43:24;1.17;;;1.00;;
5823;SDS011;2938;52.254;12.988;2023-04-24T15:45:50;1.25;;;1.15;;
5823;SDS011;2938;52.254;12.988;2023-04-24T15:48:15;5.63;;;1.80;;
5823;SDS011;2938;52.254;12.988;2023-04-24T15:50:41;4.53;;;1.45;;
5823;SDS011;2938;52.254;12.988;2023-04-24T15:53:06;1.55;;;1.27;;
5823;SDS011;2938;52.254;12.988;2023-04-24T15:55:31;1.42;;;1.33;;
5823;SDS011;2938;52.254;12.988;2023-04-24T15:57:57;1.35;;;1.25;;
5823;SDS011;2938;52.254;12.988;2023-04-24T16:00:22;1.83;;;1.67;;
5823;SDS011;2938;52.254;12.988;2023-04-24T16:02:48;2.05;;;1.35;;
5823;SDS011;2938;52.254;12.988;2023-04-24T16:05:15;2.90;;;1.65;;
5823;SDS011;2938;52.254;12.988;2023-04-24T16:07:40;3.95;;;1.67;;
5823;SDS011;2938;52.254;12.988;2023-04-24T16:10:06;1.48;;;1.38;;
5823;SDS011;2938;52.254;12.988;2023-04-24T16:12:31;0.95;;;0.95;;
5823;SDS011;2938;52.254;12.988;2023-04-24T16:14:57;1.20;;;0.80;;